Time;durP1;ratioP1;P1;durP2;ratioP2;P2;SDS_P1;SDS_P2;PMS_P1;PMS_P2;Temp;Humidity;BMP_temperature;BMP_pressure;BME280_temperature;BME280_humidity;BME280_pressure;Samples;Min_cycle;Max_cycle;Signal;HPM_P1;HPM_P2
2022/08/05 00:01:40;;;;;;;12.43;6.97;;;;;;;22.51;55.50;95366.38;5054151;28;20414;-85
2022/08/05 00:04:06;;;;;;;16.08;7.50;;;;;;;22.26;55.56;95333.28;5054434;28;20487;-85
2022/08/05 00:06:31;;;;;;;10.48;6.35;;;;;;;22.46;55.77;95363.16;5051052;28;20568;-84
2022/08/05 00:08:56;;;;;;;13.13;6.50;;;;;;;21.73;55.94;95253.44;5068220;28;20038;-85
2022/08/05 00:11:22;;;;;;;12.00;6.68;;;;;;;22.13;55.97;95315.53;5054102;28;20031;-85
2022/08/05 00:13:47;;;;;;;11.55;7.10;;;;;;;22.16;55.82;95309.47;5071448;28;20039;-85
2022/08/05 00:16:14;;;;;;;11.93;6.68;;;;;;;21.95;56.33;95309.63;5054404;28;20029;-84
2022/08/05 00:18:45;;;;;;;12.15;6.88;;;;;;;22.04;55.42;95306.81;5054638;28;20391;-85
2022/08/05 00:21:12;;;;;;;10.18;6.30;;;;;;;22.28;55.82;95373.44;5073635;28;20047;-84
2022/08/05 00:23:38;;;;;;;13.00;6.95;;;;;;;22.26;56.73;95368.41;5075087;28;20039;-84
2022/08/05 00:26:05;;;;;;;15.23;7.28;;;;;;;21.60;56.55;95240.31;5055229;28;20036;-85
2022/08/05 00:28:30;;;;;;;10.30;6.20;;;;;;;22.33;56.51;95349.69;5054103;28;20044;-84
2022/08/05 00:30:56;;;;;;;15.95;6.68;;;;;;;21.57;56.62;95239.09;5053692;28;20090;-85
2022/08/05 00:33:21;;;;;;;12.65;6.75;;;;;;;22.38;55.41;95369.50;5072227;28;20465;-85
2022/08/05 00:35:47;;;;;;;15.20;6.78;;;;;;;21.63;55.24;95251.22;5070797;28;20119;-84
2022/08/05 00:38:12;;;;;;;10.00;6.45;;;;;;;22.24;55.55;95338.25;5077236;28;20054;-85
2022/08/05 00:40:50;;;;;;;11.23;6.35;;;;;;;22.49;55.50;95355.16;5094015;28;20039;-85
2022/08/05 00:43:16;;;;;;;13.27;7.05;;;;;;;22.18;56.27;95336.94;5094320;28;20054;-84
2022/08/05 00:45:42;;;;;;;13.18;6.47;;;;;;;22.31;56.44;95372.78;5112406;28;20044;-85
2022/08/05 00:48:10;;;;;;;13.48;6.35;;;;;;;21.22;57.96;95275.78;5112296;28;20039;-84
2022/08/05 00:50:38;;;;;;;12.85;6.45;;;;;;;21.55;57.98;95333.09;5086949;28;20077;-85
2022/08/05 00:53:04;;;;;;;9.48;6.60;;;;;;;21.33;57.45;95301.19;5093561;28;20031;-84
2022/08/05 00:55:29;;;;;;;10.68;6.13;;;;;;;21.88;57.30;95370.72;5094139;28;20028;-85
2022/08/05 00:57:54;;;;;;;8.32;6.40;;;;;;;21.75;56.48;95331.38;5096737;28;20023;-84
2022/08/05 01:00:20;;;;;;;11.65;5.63;;;;;;;20.83;56.48;95204.47;5097782;28;20040;-85
2022/08/05 01:02:45;;;;;;;11.50;6.43;;;;;;;21.12;56.68;95252.75;5115790;28;20036;-85
2022/08/05 01:05:11;;;;;;;10.15;5.95;;;;;;;21.67;57.57;95354.66;5097152;28;20032;-85
2022/08/05 01:07:37;;;;;;;13.88;6.18;;;;;;;20.51;57.41;95182.66;5115883;28;20467;-85
2022/08/05 01:10:05;;;;;;;9.98;6.40;;;;;;;21.46;57.11;95300.03;5116071;28;20031;-84
2022/08/05 01:12:30;;;;;;;10.65;5.82;;;;;;;21.56;57.88;95367.06;5115524;28;20053;-85
2022/08/05 01:15:04;;;;;;;12.20;6.43;;;;;;;21.44;57.89;95359.72;5097202;28;20414;-84
2022/08/05 01:17:37;;;;;;;12.43;6.53;;;;;;;21.15;58.46;95316.78;5115948;28;20059;-85
2022/08/05 01:20:28;;;;;;;10.98;6.30;;;;;;;21.37;58.76;95369.50;5116085;28;20056;-85
2022/08/05 01:23:38;;;;;;;17.25;6.80;;;;;;;21.42;58.79;95375.50;5097605;28;20031;-84
2022/08/05 01:26:31;;;;;;;9.95;6.55;;;;;;;21.30;58.72;95378.16;5115809;28;20076;-85
2022/08/05 01:29:20;;;;;;;13.52;6.63;;;;;;;21.32;58.91;95378.63;5115499;28;20055;-84
2022/08/05 01:31:50;;;;;;;10.45;6.38;;;;;;;21.33;58.41;95358.63;5097511;28;20053;-85
2022/08/05 01:34:26;;;;;;;8.98;6.72;;;;;;;21.14;58.49;95321.38;5095796;28;20086;-85
2022/08/05 01:37:08;;;;;;;11.77;6.65;;;;;;;21.02;57.87;95283.63;5091783;28;20059;-85
2022/08/05 01:39:35;;;;;;;;;;;;;;;21.64;57.51;95370.75;5115952;28;20066;-84
2022/08/05 01:42:02;;;;;;;9.38;6.65;;;;;;;21.37;57.36;95327.13;5097071;28;20421;-85
2022/08/05 01:44:30;;;;;;;14.43;6.80;;;;;;;20.71;58.40;95269.91;5096371;28;20409;-85
2022/08/05 01:46:57;;;;;;;16.13;7.20;;;;;;;21.02;58.46;95323.28;5096949;28;20039;-85
2022/08/05 01:49:25;;;;;;;13.18;6.03;;;;;;;20.72;59.08;95290.34;5096598;28;20623;-85
2022/08/05 01:51:57;;;;;;;10.38;6.50;;;;;;;21.28;59.38;95376.94;5097235;28;20036;-85
2022/08/05 01:54:45;;;;;;;11.18;6.38;;;;;;;20.95;58.99;95310.38;5115808;28;20038;-86
2022/08/05 01:57:13;;;;;;;10.43;6.65;;;;;;;21.05;58.40;95317.22;5096785;28;20028;-86
2022/08/05 01:59:40;;;;;;;16.50;7.22;;;;;;;21.01;57.53;95298.22;5096839;28;20096;-86
2022/08/05 02:02:08;;;;;;;10.63;6.65;;;;;;;20.22;58.43;95193.56;5114209;28;20548;-85
2022/08/05 02:04:37;;;;;;;10.85;6.70;;;;;;;21.15;58.46;95319.47;5114859;28;20032;-85
2022/08/05 02:07:02;;;;;;;12.48;6.45;;;;;;;20.95;58.35;95296.09;5115076;28;20020;-87
2022/08/05 02:09:28;;;;;;;14.43;7.22;;;;;;;21.41;58.20;95365.81;5095810;28;20058;-87
2022/08/05 02:12:20;;;;;;;15.40;6.22;;;;;;;21.00;57.84;95290.47;5114997;28;20023;-85
2022/08/05 02:14:59;;;;;;;9.27;5.95;;;;;;;21.37;58.99;95369.50;5095913;28;20039;-86
2022/08/05 02:17:30;;;;;;;14.20;6.97;;;;;;;21.02;58.62;95310.59;5096221;28;20502;-85
2022/08/05 02:20:00;;;;;;;9.60;7.07;;;;;;;21.31;58.20;95368.94;5096497;28;20027;-86
2022/08/05 02:22:40;;;;;;;11.05;6.93;;;;;;;21.18;58.59;95338.50;5096381;28;20535;-85
2022/08/05 02:25:23;;;;;;;12.73;7.60;;;;;;;21.12;59.10;95366.00;5095788;28;20084;-86
2022/08/05 02:27:50;;;;;;;8.25;6.35;;;;;;;21.26;58.92;95369.19;5095902;28;20027;-85
2022/08/05 02:30:17;;;;;;;10.38;7.15;;;;;;;21.04;58.72;95334.53;5096541;28;20433;-86
2022/08/05 02:32:46;;;;;;;12.82;7.35;;;;;;;20.66;58.52;95294.38;5114174;28;20032;-85
2022/08/05 02:35:15;;;;;;;12.73;6.63;;;;;;;20.94;58.65;95324.19;5096049;28;20080;-85
2022/08/05 02:37:43;;;;;;;20.60;7.15;;;;;;;20.64;58.53;95286.63;5114861;28;20456;-85
2022/08/05 02:40:09;;;;;;;12.50;6.38;;;;;;;21.28;58.06;95372.34;5095093;28;20059;-85
2022/08/05 02:42:36;;;;;;;13.07;6.68;;;;;;;21.26;58.53;95368.41;5106334;28;20081;-85
2022/08/05 02:45:02;;;;;;;14.93;6.85;;;;;;;20.92;58.76;95334.50;5096110;28;20055;-85
2022/08/05 02:47:30;;;;;;;14.38;6.35;;;;;;;21.03;58.35;95336.44;5096022;28;20066;-85
2022/08/05 02:49:56;;;;;;;10.75;6.57;;;;;;;20.56;58.76;95273.25;5096691;28;20070;-85
2022/08/05 02:52:22;;;;;;;11.95;6.30;;;;;;;20.71;58.93;95294.94;5112726;28;20083;-85
2022/08/05 02:54:50;;;;;;;20.33;6.97;;;;;;;20.90;58.30;95310.59;5091569;28;20416;-85
2022/08/05 02:57:17;;;;;;;16.00;6.70;;;;;;;21.07;58.98;95364.28;5106712;28;20059;-86
2022/08/05 02:59:48;;;;;;;13.02;7.05;;;;;;;20.17;59.60;95255.72;5105848;28;20038;-85
2022/08/05 03:02:18;;;;;;;9.23;6.65;;;;;;;20.68;59.33;95322.56;5098623;28;20055;-85
2022/08/05 03:04:44;;;;;;;14.63;7.22;;;;;;;20.39;58.92;95275.00;5117367;28;20032;-85
2022/08/05 03:07:11;;;;;;;20.10;6.90;;;;;;;20.42;58.85;95268.16;5098900;28;20091;-85
2022/08/05 03:09:38;;;;;;;17.10;7.07;;;;;;;20.95;58.90;95361.59;5116857;28;20039;-86
2022/08/05 03:12:05;;;;;;;19.50;7.45;;;;;;;20.81;58.80;95334.16;5098239;28;20038;-85
2022/08/05 03:14:30;;;;;;;15.02;6.75;;;;;;;21.06;58.57;95359.22;5095738;28;20506;-86
2022/08/05 03:16:56;;;;;;;16.88;7.22;;;;;;;20.93;58.47;95355.72;5113977;28;20089;-85
2022/08/05 03:19:21;;;;;;;18.42;7.47;;;;;;;20.77;58.20;95336.72;5112448;28;20088;-86
2022/08/05 03:21:46;;;;;;;14.15;6.80;;;;;;;20.58;57.76;95297.97;5094475;28;20102;-86
2022/08/05 03:24:12;;;;;;;20.00;7.32;;;;;;;20.85;57.67;95348.53;5095626;28;20153;-85
2022/08/05 03:26:38;;;;;;;21.50;7.72;;;;;;;20.32;57.37;95255.09;5113538;28;20088;-85
2022/08/05 03:29:04;;;;;;;18.73;6.53;;;;;;;20.65;57.85;95320.53;5095101;28;20463;-85
2022/08/05 03:31:30;;;;;;;16.88;6.88;;;;;;;20.83;57.78;95363.47;5113264;28;20028;-85
2022/08/05 03:33:56;;;;;;;13.85;7.10;;;;;;;20.65;57.61;95327.84;5094870;28;20031;-85
2022/08/05 03:36:23;;;;;;;21.15;7.25;;;;;;;21.00;57.25;95382.13;5094481;28;20046;-85
2022/08/05 03:38:48;;;;;;;21.30;7.15;;;;;;;20.92;57.17;95367.63;5094400;28;20502;-85
2022/08/05 03:41:15;;;;;;;16.20;7.05;;;;;;;20.26;56.53;95272.59;5094500;28;20027;-85
2022/08/05 03:43:40;;;;;;;14.15;7.15;;;;;;;20.88;56.40;95355.97;5094360;28;20228;-86
2022/08/05 03:46:06;;;;;;;10.75;6.97;;;;;;;20.63;55.51;95336.25;5112839;28;20050;-85
2022/08/05 03:48:31;;;;;;;14.63;5.82;;;;;;;20.37;54.33;95311.47;5112877;28;20027;-85
2022/08/05 03:51:04;;;;;;;9.57;5.97;;;;;;;20.58;55.79;95351.84;5094354;28;20513;-85
2022/08/05 03:53:53;;;;;;;14.55;6.28;;;;;;;20.43;56.10;95331.69;5093861;28;20032;-85
2022/08/05 03:56:19;;;;;;;17.67;5.97;;;;;;;20.55;54.78;95379.44;5092039;28;20054;-86
2022/08/05 03:58:47;;;;;;;14.07;6.47;;;;;;;20.12;54.29;95293.63;5087801;28;20498;-86
2022/08/05 04:01:16;;;;;;;13.18;5.90;;;;;;;20.19;53.93;95296.56;5093889;28;20498;-86
2022/08/05 04:03:46;;;;;;;10.23;5.28;;;;;;;20.67;53.70;95388.34;5094619;28;20506;-86
2022/08/05 04:06:12;;;;;;;15.20;5.90;;;;;;;20.31;53.61;95318.16;5094933;28;20049;-86
2022/08/05 04:08:38;;;;;;;14.88;6.18;;;;;;;19.54;54.04;95225.41;5112291;28;20123;-85
2022/08/05 04:11:06;;;;;;;10.25;6.32;;;;;;;20.51;54.52;95392.00;5094164;28;20562;-85
2022/08/05 04:13:31;;;;;;;12.82;5.72;;;;;;;20.54;54.16;95373.25;5094716;28;20043;-86
2022/08/05 04:15:57;;;;;;;13.82;6.13;;;;;;;20.10;53.75;95268.94;5094321;28;20115;-85
2022/08/05 04:18:25;;;;;;;14.40;6.43;;;;;;;20.70;53.83;95382.28;5113076;28;20040;-85
2022/08/05 04:20:55;;;;;;;10.07;6.93;;;;;;;20.73;53.92;95378.16;5093949;28;20444;-85
2022/08/05 04:23:23;;;;;;;8.23;6.50;;;;;;;20.65;53.82;95382.50;5094428;28;20032;-85
2022/08/05 04:25:49;;;;;;;18.05;6.78;;;;;;;20.87;53.38;95377.84;5112544;28;20035;-86
2022/08/05 04:28:15;;;;;;;11.45;6.40;;;;;;;20.96;53.20;95381.25;5093816;28;20096;-85
2022/08/05 04:30:40;;;;;;;11.15;6.25;;;;;;;20.29;53.23;95263.84;5107588;28;20032;-85
2022/08/05 04:33:05;;;;;;;12.45;6.57;;;;;;;20.97;53.14;95380.13;5094081;28;20043;-85
2022/08/05 04:35:31;;;;;;;17.70;6.95;;;;;;;20.23;53.01;95257.88;5098127;28;20039;-85
2022/08/05 04:37:56;;;;;;;7.57;6.30;;;;;;;20.89;54.06;95378.31;5098094;28;20038;-86
2022/08/05 04:40:22;;;;;;;11.75;6.28;;;;;;;20.48;53.13;95284.91;5098677;28;20024;-85
2022/08/05 04:42:47;;;;;;;14.48;7.35;;;;;;;20.87;53.26;95353.59;5098371;28;20030;-85
2022/08/05 04:45:12;;;;;;;23.98;5.78;;;;;;;20.88;53.00;95339.00;5098079;28;20038;-85
2022/08/05 04:47:38;;;;;;;14.15;6.97;;;;;;;20.49;52.10;95279.19;5098516;28;20043;-86
2022/08/05 04:50:04;;;;;;;12.13;6.57;;;;;;;20.39;52.24;95248.06;5098460;28;20032;-86
2022/08/05 04:52:29;;;;;;;22.20;7.80;;;;;;;19.86;52.55;95178.13;5097849;28;20028;-85
2022/08/05 04:54:55;;;;;;;14.98;7.15;;;;;;;21.14;52.34;95369.91;5098135;28;20088;-85
2022/08/05 04:57:20;;;;;;;16.67;7.25;;;;;;;21.05;52.81;95374.66;5098516;28;20035;-85
2022/08/05 04:59:46;;;;;;;12.70;8.13;;;;;;;20.54;52.45;95262.00;5098093;28;20031;-85
2022/08/05 05:02:11;;;;;;;19.20;8.57;;;;;;;20.50;52.35;95243.03;5098972;28;20027;-86
2022/08/05 05:04:36;;;;;;;18.92;8.35;;;;;;;21.44;52.32;95367.03;5095817;28;20032;-86
2022/08/05 05:07:02;;;;;;;12.63;7.30;;;;;;;20.32;52.54;95203.91;5084666;28;20487;-85
2022/08/05 05:09:27;;;;;;;13.98;7.78;;;;;;;21.30;52.38;95366.59;5115065;28;20579;-85
2022/08/05 05:11:53;;;;;;;20.63;8.77;;;;;;;19.95;52.00;95141.94;5096598;28;20038;-85
2022/08/05 05:14:18;;;;;;;13.75;7.53;;;;;;;20.54;52.02;95210.81;5096393;28;20080;-85
2022/08/05 05:16:44;;;;;;;14.60;7.15;;;;;;;21.08;52.54;95303.84;5100541;28;20109;-85
2022/08/05 05:19:09;;;;;;;10.93;7.78;;;;;;;21.64;52.16;95366.16;5097014;28;20485;-86
2022/08/05 05:21:35;;;;;;;13.73;8.00;;;;;;;21.69;52.16;95359.72;5115243;28;20024;-85
2022/08/05 05:24:00;;;;;;;13.40;7.88;;;;;;;21.33;51.94;95301.19;5097448;28;20023;-85
2022/08/05 05:26:25;;;;;;;14.32;8.50;;;;;;;21.18;51.97;95291.88;5115424;28;20035;-86
2022/08/05 05:28:51;;;;;;;17.95;7.75;;;;;;;21.52;51.74;95322.97;5115429;28;20032;-86
2022/08/05 05:31:16;;;;;;;12.52;7.75;;;;;;;21.27;51.94;95275.56;5097160;28;20040;-85
2022/08/05 05:33:42;;;;;;;16.98;8.48;;;;;;;21.77;52.09;95351.50;5097690;28;20410;-86
2022/08/05 05:36:07;;;;;;;18.42;9.00;;;;;;;21.75;51.88;95352.97;5096625;28;20429;-85
2022/08/05 05:38:33;;;;;;;14.57;8.38;;;;;;;21.33;51.63;95269.59;5096512;28;20539;-84
2022/08/05 05:40:58;;;;;;;15.20;9.57;;;;;;;21.17;51.31;95242.53;5114610;28;20378;-86
2022/08/05 05:43:24;;;;;;;17.05;9.73;;;;;;;20.75;51.75;95171.88;5114893;28;20239;-86
2022/08/05 05:45:50;;;;;;;16.35;8.88;;;;;;;20.14;52.01;95065.25;5115190;28;20054;-86
2022/08/05 05:48:16;;;;;;;20.25;8.95;;;;;;;21.84;52.30;95359.81;5096186;28;20039;-85
2022/08/05 05:50:41;;;;;;;18.45;8.63;;;;;;;21.93;52.13;95362.38;5096679;28;20424;-86
2022/08/05 05:53:10;;;;;;;15.85;9.65;;;;;;;22.01;52.23;95356.09;5096981;28;20131;-85
2022/08/05 05:55:35;;;;;;;19.58;9.93;;;;;;;21.50;51.65;95263.19;5115904;28;20478;-85
2022/08/05 05:58:01;;;;;;;20.85;9.85;;;;;;;21.88;51.49;95339.13;5114505;28;20050;-86
2022/08/05 06:00:26;;;;;;;16.10;10.32;;;;;;;21.91;51.85;95365.41;5096766;28;20031;-85
2022/08/05 06:02:52;;;;;;;18.58;9.40;;;;;;;21.88;51.65;95331.03;5114956;28;20038;-85
2022/08/05 06:05:17;;;;;;;17.80;8.70;;;;;;;21.84;51.61;95310.44;5096749;28;20034;-85
2022/08/05 06:07:44;;;;;;;19.30;9.13;;;;;;;21.60;51.63;95264.59;5095972;28;20036;-85
2022/08/05 06:10:11;;;;;;;22.52;9.43;;;;;;;21.61;51.48;95250.78;5095093;28;20032;-85
2022/08/05 06:12:37;;;;;;;27.27;9.75;;;;;;;;;;5106064;28;20103;-85
2022/08/05 06:15:04;;;;;;;19.80;9.90;;;;;;;22.26;51.27;95329.81;5096097;28;20122;-84
2022/08/05 06:17:30;;;;;;;23.35;9.23;;;;;;;22.08;51.34;95290.69;5096814;28;20028;-85
2022/08/05 06:19:55;;;;;;;23.25;10.23;;;;;;;22.43;51.03;95334.13;5096586;28;20035;-85
2022/08/05 06:22:32;;;;;;;19.58;9.40;;;;;;;22.77;51.12;95367.88;5094304;28;20570;-85
2022/08/05 06:24:57;;;;;;;29.55;9.90;;;;;;;22.70;51.23;95366.53;5091198;28;20116;-85
2022/08/05 06:27:23;;;;;;;21.23;10.85;;;;;;;22.05;50.50;95253.59;5096403;28;20446;-85
2022/08/05 06:29:49;;;;;;;25.13;10.65;;;;;;;22.63;50.55;95331.22;5095687;28;20122;-85
2022/08/05 06:32:14;;;;;;;22.17;11.23;;;;;;;22.46;50.67;95287.50;5093617;28;20020;-85
2022/08/05 06:34:40;;;;;;;23.65;9.85;;;;;;;22.91;51.07;95352.03;5095613;28;20066;-85
2022/08/05 06:37:06;;;;;;;19.35;10.23;;;;;;;22.48;51.47;95296.84;5095618;28;20481;-86
2022/08/05 06:39:31;;;;;;;18.90;9.43;;;;;;;23.05;51.22;95358.59;5091926;28;20494;-85
2022/08/05 06:42:00;;;;;;;21.88;10.88;;;;;;;22.75;50.76;95324.19;5091338;28;20447;-85
2022/08/05 06:44:26;;;;;;;65.10;15.77;;;;;;;22.74;51.24;95307.16;5091210;28;20089;-85
2022/08/05 06:46:51;;;;;;;31.33;10.82;;;;;;;22.80;50.97;95313.91;5086383;28;20036;-85
2022/08/05 06:49:17;;;;;;;23.80;10.02;;;;;;;22.45;50.67;95246.16;5071057;28;20036;-85
2022/08/05 06:51:42;;;;;;;29.02;11.68;;;;;;;22.21;50.62;95209.25;5084927;28;20040;-85
2022/08/05 06:54:08;;;;;;;17.23;10.13;;;;;;;22.09;50.62;95168.84;5089447;28;20104;-85
2022/08/05 06:56:33;;;;;;;25.15;10.20;;;;;;;23.34;50.70;95351.19;5113054;28;20023;-85
2022/08/05 06:58:59;;;;;;;21.92;9.90;;;;;;;22.87;50.35;95281.66;5113379;28;20424;-85
2022/08/05 07:01:24;;;;;;;15.68;9.30;;;;;;;22.74;51.22;95273.94;5094048;28;20028;-85
2022/08/05 07:03:49;;;;;;;18.55;8.82;;;;;;;23.26;50.45;95325.88;5089806;28;20031;-85
2022/08/05 07:06:15;;;;;;;14.63;8.30;;;;;;;22.84;49.41;95260.69;5087056;28;20032;-85
2022/08/05 07:08:44;;;;;;;22.17;8.95;;;;;;;23.53;49.28;95351.28;5093733;28;20032;-86
2022/08/05 07:11:11;;;;;;;19.13;8.43;;;;;;;23.16;50.51;95320.97;5076189;28;20150;-85
2022/08/05 07:19:04;;;;;;;22.35;7.90;;;;;;;23.28;50.35;95349.84;5075992;28;20054;-85
2022/08/05 07:21:30;;;;;;;17.65;8.52;;;;;;;23.46;49.85;95364.63;5075829;28;20025;-85
2022/08/05 07:23:55;;;;;;;18.95;8.38;;;;;;;23.11;49.99;95304.25;5089406;28;20024;-85
2022/08/05 07:26:21;;;;;;;22.60;9.00;;;;;;;23.04;49.92;95278.56;5088771;28;20031;-85
2022/08/05 07:28:47;;;;;;;19.15;8.63;;;;;;;23.23;49.74;95268.97;5074157;28;20178;-85
2022/08/05 07:31:12;;;;;;;15.18;7.95;;;;;;;23.35;50.30;95271.53;5093780;28;20099;-85
2022/08/05 07:33:38;;;;;;;17.48;7.35;;;;;;;23.87;49.93;95335.41;5111999;28;20055;-85
2022/08/05 07:36:04;;;;;;;14.50;7.53;;;;;;;23.86;49.66;95342.75;5088627;28;20036;-85
2022/08/05 07:38:30;;;;;;;13.00;7.78;;;;;;;23.74;50.65;95354.47;5083936;28;20051;-85
2022/08/05 07:40:55;;;;;;;13.77;7.00;;;;;;;23.85;49.42;95354.72;5086804;28;20099;-86
2022/08/05 07:43:21;;;;;;;13.30;6.90;;;;;;;23.75;48.54;95315.41;5108813;28;20024;-85
2022/08/05 07:45:46;;;;;;;15.38;7.55;;;;;;;23.66;48.72;95317.53;5111420;28;20478;-85
2022/08/05 07:48:12;;;;;;;16.45;7.80;;;;;;;23.83;48.55;95325.28;5095188;28;20028;-84
2022/08/05 07:50:37;;;;;;;16.80;7.32;;;;;;;23.66;48.21;95276.13;5090522;28;20032;-85
2022/08/05 07:53:03;;;;;;;20.90;7.70;;;;;;;24.16;48.21;95335.66;5090229;28;20050;-84
2022/08/05 07:55:30;;;;;;;15.32;6.72;;;;;;;23.97;47.85;95288.78;5087406;28;20032;-85
2022/08/05 07:57:56;;;;;;;20.67;7.97;;;;;;;24.20;48.16;95324.91;5084440;28;20506;-85
2022/08/05 08:00:22;;;;;;;17.55;6.97;;;;;;;24.34;46.55;95324.38;5093206;28;20502;-86
2022/08/05 08:02:47;;;;;;;15.80;8.02;;;;;;;23.74;46.92;95261.59;5090311;28;20032;-86
2022/08/05 08:05:13;;;;;;;12.48;7.65;;;;;;;24.20;45.83;95327.59;5084205;28;20025;-85
2022/08/05 08:07:38;;;;;;;23.10;7.43;;;;;;;24.46;46.40;95354.88;5083069;28;20035;-86
2022/08/05 08:10:04;;;;;;;15.95;7.40;;;;;;;24.41;46.38;95329.97;5086998;28;20068;-86
2022/08/05 08:12:30;;;;;;;16.00;6.80;;;;;;;23.92;46.04;95237.63;5084722;28;20032;-85
2022/08/05 08:14:55;;;;;;;12.30;6.72;;;;;;;24.57;44.87;95346.91;5086458;28;20056;-85
2022/08/05 08:17:21;;;;;;;9.73;6.57;;;;;;;24.05;45.68;95279.66;5090011;28;20046;-85
2022/08/05 08:19:47;;;;;;;13.40;7.25;;;;;;;24.21;46.10;95294.75;5095464;28;20029;-85
2022/08/05 08:22:12;;;;;;;10.70;6.45;;;;;;;24.38;45.89;95317.13;5075734;28;20024;-86
2022/08/05 08:24:38;;;;;;;9.55;5.82;;;;;;;24.63;46.58;95342.81;5082779;28;20039;-85
2022/08/05 08:27:05;;;;;;;11.25;6.25;;;;;;;24.35;46.10;95277.19;5110340;28;20551;-85
2022/08/05 08:29:31;;;;;;;12.90;5.95;;;;;;;24.66;45.41;95314.16;5112925;28;20051;-85
2022/08/05 08:31:56;;;;;;;11.63;6.28;;;;;;;24.00;45.17;95188.66;5090531;28;20094;-85
2022/08/05 08:34:24;;;;;;;12.35;6.30;;;;;;;24.68;44.71;95273.91;5085036;28;20035;-86
2022/08/05 08:36:50;;;;;;;10.00;5.82;;;;;;;24.97;45.06;95303.91;5086022;28;20414;-85
2022/08/05 08:39:17;;;;;;;14.15;5.38;;;;;;;25.28;45.08;95335.44;5080324;28;20052;-86
2022/08/05 08:41:47;;;;;;;7.40;4.97;;;;;;;25.25;42.20;95328.00;5091045;28;20028;-85
2022/08/05 08:44:18;;;;;;;18.63;5.32;;;;;;;24.71;41.50;95265.06;5093621;28;20031;-87
2022/08/05 08:46:46;;;;;;;13.43;6.10;;;;;;;23.84;42.66;95107.47;5104208;28;20047;-85
2022/08/05 08:49:18;;;;;;;9.68;5.90;;;;;;;25.04;42.98;95297.03;5072213;28;20028;-86
2022/08/05 08:51:46;;;;;;;;;;;;;;;25.45;43.57;95319.81;5088920;28;20042;-86
2022/08/05 08:54:11;;;;;;;13.77;6.38;;;;;;;24.77;43.45;95228.38;5107403;28;20002;-85
2022/08/05 08:56:38;;;;;;;10.10;5.72;;;;;;;25.28;44.04;95300.16;5083094;28;21512;-86
2022/08/05 08:59:04;;;;;;;16.85;6.30;;;;;;;25.59;42.41;95330.91;5083516;28;20115;-86
2022/08/05 09:01:30;;;;;;;13.05;5.68;;;;;;;25.64;42.08;95317.78;5092739;28;20035;-85
2022/08/05 09:03:57;;;;;;;8.55;4.95;;;;;;;24.34;41.33;95100.22;5111535;28;20042;-85
2022/08/05 09:06:24;;;;;;;5.30;4.68;;;;;;;25.50;40.81;95263.25;5111424;28;20027;-86
2022/08/05 09:08:49;;;;;;;8.07;4.50;;;;;;;25.92;40.32;95308.47;5099411;28;20169;-86
2022/08/05 09:11:15;;;;;;;8.82;5.03;;;;;;;25.32;40.31;95197.84;5110302;28;20036;-85
2022/08/05 09:13:41;;;;;;;6.75;3.70;;;;;;;25.94;39.85;95298.03;5111029;28;20499;-85
2022/08/05 09:16:10;;;;;;;8.40;4.50;;;;;;;25.38;38.12;95196.38;5088660;28;20059;-85
2022/08/05 09:18:35;;;;;;;9.40;3.70;;;;;;;26.13;37.74;95295.94;5086050;28;20032;-85
2022/08/05 09:21:01;;;;;;;6.05;3.45;;;;;;;25.59;38.09;95184.25;5093496;28;20028;-85
2022/08/05 09:23:27;;;;;;;7.32;4.07;;;;;;;25.93;39.28;95226.59;5090887;28;20035;-85
2022/08/05 09:26:08;;;;;;;14.77;4.38;;;;;;;26.21;38.04;95266.91;5085783;28;20028;-85
2022/08/05 09:28:35;;;;;;;10.77;4.10;;;;;;;26.20;37.45;95231.94;5092720;28;20035;-85
2022/08/05 09:31:04;;;;;;;12.13;3.17;;;;;;;26.44;36.03;95266.81;5095026;28;20039;-85
2022/08/05 09:33:30;;;;;;;6.03;3.45;;;;;;;25.96;36.19;95182.38;5094666;28;20039;-86
2022/08/05 09:36:04;;;;;;;12.50;4.30;;;;;;;26.09;36.76;95197.28;5088247;28;20118;-86
2022/08/05 09:38:31;;;;;;;8.70;3.85;;;;;;;26.68;36.67;95277.16;5081084;28;20056;-85
2022/08/05 09:41:08;;;;;;;7.68;3.47;;;;;;;26.79;36.27;95271.81;5075306;28;20028;-86
2022/08/05 09:43:36;;;;;;;4.05;3.20;;;;;;;25.58;35.86;95076.75;5076753;28;20028;-86
2022/08/05 09:46:05;;;;;;;11.07;3.95;;;;;;;26.31;36.86;95170.34;5103190;28;20035;-86
2022/08/05 09:48:34;;;;;;;6.00;3.38;;;;;;;26.79;35.65;95239.16;5105407;28;20059;-85
2022/08/05 09:51:01;;;;;;;9.57;3.80;;;;;;;27.06;36.62;95261.59;5092775;28;20032;-85
2022/08/05 09:53:29;;;;;;;7.53;3.70;;;;;;;26.29;37.43;95116.34;5092853;28;20566;-87
2022/08/05 09:56:01;;;;;;;7.30;3.88;;;;;;;27.47;36.17;95219.47;5082978;28;20502;-86
2022/08/05 09:58:27;;;;;;;7.65;3.35;;;;;;;28.59;34.21;95258.56;5091968;28;20081;-86
2022/08/05 10:01:01;;;;;;;8.40;3.10;;;;;;;29.57;31.35;95252.75;5091546;28;20032;-86
2022/08/05 10:03:28;;;;;;;5.28;3.05;;;;;;;30.20;29.77;95211.56;5112170;28;20487;-86
2022/08/05 10:06:02;;;;;;;6.90;3.20;;;;;;;31.47;30.09;95250.22;5112398;28;20066;-85
2022/08/05 10:08:27;;;;;;;10.00;3.38;;;;;;;31.81;26.83;95190.72;5111916;28;20028;-85
2022/08/05 10:10:53;;;;;;;6.38;2.78;;;;;;;32.67;25.64;95204.13;5111780;28;20038;-86
2022/08/05 10:13:45;;;;;;;6.75;2.95;;;;;;;33.62;25.10;95231.28;5111352;28;20047;-86
2022/08/05 10:16:30;;;;;;;3.28;2.47;;;;;;;33.94;24.01;95234.22;5111313;28;20553;-86
2022/08/05 10:18:57;;;;;;;14.77;3.08;;;;;;;34.08;23.35;95142.34;5100026;28;20568;-85
2022/08/05 10:21:23;;;;;;;8.32;3.42;;;;;;;35.03;22.70;95204.75;5090218;28;20043;-85
2022/08/05 10:23:49;;;;;;;12.02;3.55;;;;;;;35.41;22.27;95224.28;5083922;28;20038;-86
2022/08/05 10:26:15;;;;;;;12.70;3.22;;;;;;;35.52;22.46;95186.97;5087223;28;20039;-86
2022/08/05 10:28:42;;;;;;;5.22;2.60;;;;;;;36.29;22.09;95235.75;5092885;28;20032;-86
2022/08/05 10:31:11;;;;;;;8.80;3.30;;;;;;;36.34;22.65;95181.97;5115141;28;20482;-85
2022/08/05 10:33:37;;;;;;;4.82;2.95;;;;;;;36.97;21.87;95226.22;5080962;28;20477;-86
2022/08/05 10:36:03;;;;;;;6.72;3.25;;;;;;;37.04;22.99;95225.97;5072568;28;20033;-86
2022/08/05 10:38:30;;;;;;;7.15;3.40;;;;;;;37.25;21.85;95198.88;5072354;28;20202;-86
2022/08/05 10:41:27;;;;;;;5.35;2.67;;;;;;;37.02;21.22;95198.00;5072327;28;20040;-86
2022/08/05 10:43:59;;;;;;;10.52;2.97;;;;;;;36.75;20.74;95203.22;5065320;28;20041;-86
2022/08/05 10:46:42;;;;;;;8.32;3.22;;;;;;;37.44;19.73;95222.72;5073006;28;20040;-86
2022/08/05 10:49:08;;;;;;;3.67;2.97;;;;;;;37.23;19.83;95174.44;5079676;28;20339;-85
2022/08/05 10:51:57;;;;;;;5.68;2.50;;;;;;;37.73;19.76;95217.03;5091616;28;20035;-86
2022/08/05 10:54:44;;;;;;;22.15;3.95;;;;;;;37.29;20.48;95182.94;5091364;28;20063;-86
2022/08/05 10:57:11;;;;;;;9.45;2.95;;;;;;;37.61;19.84;95182.66;5090342;28;20445;-87
2022/08/05 10:59:38;;;;;;;5.05;3.05;;;;;;;37.25;20.06;95168.44;5090767;28;20124;-86
2022/08/05 11:02:13;;;;;;;5.90;2.80;;;;;;;37.58;19.83;95204.88;5090370;28;20028;-86
2022/08/05 11:04:44;;;;;;;4.15;2.60;;;;;;;37.46;19.78;95151.13;5086872;28;20028;-86
2022/08/05 11:07:14;;;;;;;4.80;2.45;;;;;;;37.72;20.23;95127.69;5084377;28;20028;-86
2022/08/05 11:09:53;;;;;;;7.35;3.03;;;;;;;37.71;19.59;95144.75;5078226;28;20020;-86
2022/08/05 11:12:35;;;;;;;5.45;2.95;;;;;;;37.99;19.61;95190.78;5089747;28;20035;-85
2022/08/05 11:15:08;;;;;;;10.18;2.90;;;;;;;38.22;19.74;95193.09;5091072;28;20035;-86
2022/08/05 11:17:39;;;;;;;3.55;2.50;;;;;;;38.05;19.25;95157.78;5091424;28;20705;-86
2022/08/05 11:20:05;;;;;;;;;;;;;;;38.07;19.27;95191.31;5092037;28;20040;-86
2022/08/05 11:22:41;;;;;;;5.68;2.72;;;;;;;38.19;19.08;95171.84;5093498;28;19920;-86
2022/08/05 11:25:25;;;;;;;4.68;2.90;;;;;;;37.83;19.98;95190.97;5092970;28;20064;-86
2022/08/05 11:27:51;;;;;;;5.22;2.20;;;;;;;38.03;19.35;95169.25;5093292;28;20085;-85
2022/08/05 11:30:16;;;;;;;4.28;2.90;;;;;;;37.93;18.81;95139.19;5091189;28;20122;-86
2022/08/05 11:32:42;;;;;;;3.70;2.67;;;;;;;37.75;19.17;95151.72;5091742;28;20457;-86
2022/08/05 11:35:45;;;;;;;6.68;2.90;;;;;;;38.27;19.35;95183.44;5093309;28;20032;-86
2022/08/05 11:38:11;;;;;;;7.00;3.80;;;;;;;38.34;19.19;95138.84;5095449;28;20081;-86
2022/08/05 11:41:00;;;;;;;4.63;3.90;;;;;;;38.54;18.57;95153.13;5094532;28;20035;-85